sensor_id;sensor_type;location;lat;lon;timestamp;temperature;humidity
39951;DHT22;25629;51.444;-2.606;2022-09-13T00:00:43;20.60;99.90
39951;DHT22;25629;51.444;-2.606;2022-09-13T00:03:11;20.50;99.90
39951;DHT22;25629;51.444;-2.606;2022-09-13T00:05:37;20.50;99.90
39951;DHT22;25629;51.444;-2.606;2022-09-13T00:08:04;20.50;99.90
39951;DHT22;25629;51.444;-2.606;2022-09-13T00:10:30;20.50;99.90
39951;DHT22;25629;51.444;-2.606;2022-09-13T00:12:57;20.50;99.90
39951;DHT22;25629;51.444;-2.606;2022-09-13T00:15:22;20.40;99.90
39951;DHT22;25629;51.444;-2.606;2022-09-13T00:17:48;20.40;99.90
39951;DHT22;25629;51.444;-2.606;2022-09-13T00:20:14;20.40;99.90
39951;DHT22;25629;51.444;-2.606;2022-09-13T00:22:39;20.30;99.90
39951;DHT22;25629;51.444;-2.606;2022-09-13T00:25:05;20.20;99.90
39951;DHT22;25629;51.444;-2.606;2022-09-13T00:27:33;20.10;99.90
39951;DHT22;25629;51.444;-2.606;2022-09-13T00:29:59;20.00;99.90
39951;DHT22;25629;51.444;-2.606;2022-09-13T00:32:24;20.00;99.90
39951;DHT22;25629;51.444;-2.606;2022-09-13T00:34:50;20.00;99.90
39951;DHT22;25629;51.444;-2.606;2022-09-13T00:37:16;20.00;99.90
39951;DHT22;25629;51.444;-2.606;2022-09-13T00:39:41;19.90;99.90
39951;DHT22;25629;51.444;-2.606;2022-09-13T00:42:11;19.90;99.90
39951;DHT22;25629;51.444;-2.606;2022-09-13T00:47:45;19.70;99.90
39951;DHT22;25629;51.444;-2.606;2022-09-13T00:50:20;19.60;99.90
39951;DHT22;25629;51.444;-2.606;2022-09-13T00:52:56;19.50;99.90
39951;DHT22;25629;51.444;-2.606;2022-09-13T00:58:17;19.40;99.90
39951;DHT22;25629;51.444;-2.606;2022-09-13T01:00:45;19.30;99.90
39951;DHT22;25629;51.444;-2.606;2022-09-13T01:03:12;19.10;99.90
39951;DHT22;25629;51.444;-2.606;2022-09-13T01:05:47;19.10;99.90
39951;DHT22;25629;51.444;-2.606;2022-09-13T01:08:15;19.00;99.90
39951;DHT22;25629;51.444;-2.606;2022-09-13T01:10:48;19.00;99.90
39951;DHT22;25629;51.444;-2.606;2022-09-13T01:13:20;19.00;99.90
39951;DHT22;25629;51.444;-2.606;2022-09-13T01:15:47;18.90;99.90
39951;DHT22;25629;51.444;-2.606;2022-09-13T01:18:14;18.80;99.90
39951;DHT22;25629;51.444;-2.606;2022-09-13T01:23:59;18.70;99.90
39951;DHT22;25629;51.444;-2.606;2022-09-13T01:42:40;18.30;99.90
39951;DHT22;25629;51.444;-2.606;2022-09-13T01:56:15;18.20;99.90
39951;DHT22;25629;51.444;-2.606;2022-09-13T01:58:58;18.20;99.90
39951;DHT22;25629;51.444;-2.606;2022-09-13T02:01:33;18.10;99.90
39951;DHT22;25629;51.444;-2.606;2022-09-13T02:04:08;18.10;99.90
39951;DHT22;25629;51.444;-2.606;2022-09-13T02:06:44;18.20;99.90
39951;DHT22;25629;51.444;-2.606;2022-09-13T02:09:17;18.00;99.90
39951;DHT22;25629;51.444;-2.606;2022-09-13T02:11:46;18.00;99.90
39951;DHT22;25629;51.444;-2.606;2022-09-13T02:14:17;17.90;99.90
39951;DHT22;25629;51.444;-2.606;2022-09-13T02:16:48;17.90;99.90
39951;DHT22;25629;51.444;-2.606;2022-09-13T02:19:25;17.90;99.90
39951;DHT22;25629;51.444;-2.606;2022-09-13T02:21:56;17.90;99.90
39951;DHT22;25629;51.444;-2.606;2022-09-13T02:24:38;17.80;99.90
39951;DHT22;25629;51.444;-2.606;2022-09-13T02:27:15;17.80;99.90
39951;DHT22;25629;51.444;-2.606;2022-09-13T02:29:45;17.70;99.90
39951;DHT22;25629;51.444;-2.606;2022-09-13T02:34:49;17.60;99.90
39951;DHT22;25629;51.444;-2.606;2022-09-13T02:37:16;17.60;99.90
39951;DHT22;25629;51.444;-2.606;2022-09-13T02:39:50;17.60;99.90
39951;DHT22;25629;51.444;-2.606;2022-09-13T02:42:21;17.60;99.90
39951;DHT22;25629;51.444;-2.606;2022-09-13T02:44:55;17.60;99.90
39951;DHT22;25629;51.444;-2.606;2022-09-13T02:47:50;17.50;99.90
39951;DHT22;25629;51.444;-2.606;2022-09-13T02:53:28;17.40;99.90
39951;DHT22;25629;51.444;-2.606;2022-09-13T02:58:40;17.40;99.90
39951;DHT22;25629;51.444;-2.606;2022-09-13T03:01:09;17.40;99.90
39951;DHT22;25629;51.444;-2.606;2022-09-13T03:03:35;17.40;99.90
39951;DHT22;25629;51.444;-2.606;2022-09-13T03:06:01;17.50;99.90
39951;DHT22;25629;51.444;-2.606;2022-09-13T03:08:28;17.40;99.90
39951;DHT22;25629;51.444;-2.606;2022-09-13T03:19:39;17.30;99.90
39951;DHT22;25629;51.444;-2.606;2022-09-13T03:22:14;17.30;99.90
39951;DHT22;25629;51.444;-2.606;2022-09-13T03:25:06;17.30;99.90
39951;DHT22;25629;51.444;-2.606;2022-09-13T03:30:03;17.20;99.90
39951;DHT22;25629;51.444;-2.606;2022-09-13T03:38:04;17.10;99.90
39951;DHT22;25629;51.444;-2.606;2022-09-13T03:40:56;17.10;99.90
39951;DHT22;25629;51.444;-2.606;2022-09-13T03:46:14;17.10;99.90
39951;DHT22;25629;51.444;-2.606;2022-09-13T03:48:42;17.10;99.90
39951;DHT22;25629;51.444;-2.606;2022-09-13T03:51:08;17.10;99.90
39951;DHT22;25629;51.444;-2.606;2022-09-13T03:53:38;17.10;99.90
39951;DHT22;25629;51.444;-2.606;2022-09-13T03:56:13;17.00;99.90
39951;DHT22;25629;51.444;-2.606;2022-09-13T03:58:40;17.00;99.90
39951;DHT22;25629;51.444;-2.606;2022-09-13T04:01:06;17.00;99.90
39951;DHT22;25629;51.444;-2.606;2022-09-13T04:03:31;17.00;99.90
39951;DHT22;25629;51.444;-2.606;2022-09-13T04:05:57;17.10;99.90
39951;DHT22;25629;51.444;-2.606;2022-09-13T04:08:22;17.10;99.90
39951;DHT22;25629;51.444;-2.606;2022-09-13T04:10:49;17.10;99.90
39951;DHT22;25629;51.444;-2.606;2022-09-13T04:13:15;17.00;99.90
39951;DHT22;25629;51.444;-2.606;2022-09-13T04:15:41;16.90;99.90
39951;DHT22;25629;51.444;-2.606;2022-09-13T04:18:07;16.90;99.90
39951;DHT22;25629;51.444;-2.606;2022-09-13T04:20:33;16.90;99.90
39951;DHT22;25629;51.444;-2.606;2022-09-13T04:23:00;16.90;99.90
39951;DHT22;25629;51.444;-2.606;2022-09-13T04:25:26;16.90;99.90
39951;DHT22;25629;51.444;-2.606;2022-09-13T04:27:55;16.90;99.90
39951;DHT22;25629;51.444;-2.606;2022-09-13T04:30:21;16.80;99.90
39951;DHT22;25629;51.444;-2.606;2022-09-13T04:32:48;16.80;99.90
39951;DHT22;25629;51.444;-2.606;2022-09-13T04:35:13;16.80;99.90
39951;DHT22;25629;51.444;-2.606;2022-09-13T04:37:42;16.80;99.90
39951;DHT22;25629;51.444;-2.606;2022-09-13T04:40:09;16.90;99.90
39951;DHT22;25629;51.444;-2.606;2022-09-13T04:42:34;16.80;99.90
39951;DHT22;25629;51.444;-2.606;2022-09-13T04:45:00;16.80;99.90
39951;DHT22;25629;51.444;-2.606;2022-09-13T04:47:26;16.70;99.90
39951;DHT22;25629;51.444;-2.606;2022-09-13T04:49:51;16.70;99.90
39951;DHT22;25629;51.444;-2.606;2022-09-13T04:52:17;16.80;99.90
39951;DHT22;25629;51.444;-2.606;2022-09-13T04:54:43;16.80;99.90
39951;DHT22;25629;51.444;-2.606;2022-09-13T04:57:08;16.70;99.90
39951;DHT22;25629;51.444;-2.606;2022-09-13T04:59:34;16.80;99.90
39951;DHT22;25629;51.444;-2.606;2022-09-13T05:01:59;16.80;99.90
39951;DHT22;25629;51.444;-2.606;2022-09-13T05:04:25;16.80;99.90
39951;DHT22;25629;51.444;-2.606;2022-09-13T05:06:51;16.70;99.90
39951;DHT22;25629;51.444;-2.606;2022-09-13T05:09:17;16.70;99.90
39951;DHT22;25629;51.444;-2.606;2022-09-13T05:11:42;16.60;99.90
39951;DHT22;25629;51.444;-2.606;2022-09-13T05:14:09;16.60;99.90
39951;DHT22;25629;51.444;-2.606;2022-09-13T05:16:35;16.60;99.90
39951;DHT22;25629;51.444;-2.606;2022-09-13T05:19:01;16.60;99.90
39951;DHT22;25629;51.444;-2.606;2022-09-13T05:21:27;16.60;99.90
39951;DHT22;25629;51.444;-2.606;2022-09-13T05:23:54;16.60;99.90
39951;DHT22;25629;51.444;-2.606;2022-09-13T05:26:21;16.60;99.90
39951;DHT22;25629;51.444;-2.606;2022-09-13T05:28:47;16.60;99.90
39951;DHT22;25629;51.444;-2.606;2022-09-13T05:31:18;16.60;99.90
39951;DHT22;25629;51.444;-2.606;2022-09-13T05:33:46;16.60;99.90
39951;DHT22;25629;51.444;-2.606;2022-09-13T05:36:12;16.50;99.90
39951;DHT22;25629;51.444;-2.606;2022-09-13T05:38:38;16.50;99.90
39951;DHT22;25629;51.444;-2.606;2022-09-13T05:41:04;16.50;99.90
39951;DHT22;25629;51.444;-2.606;2022-09-13T05:43:32;16.50;99.90
39951;DHT22;25629;51.444;-2.606;2022-09-13T05:46:11;16.50;99.90
39951;DHT22;25629;51.444;-2.606;2022-09-13T05:48:37;16.50;99.90
39951;DHT22;25629;51.444;-2.606;2022-09-13T05:51:05;16.50;99.90
39951;DHT22;25629;51.444;-2.606;2022-09-13T05:53:32;16.50;99.90
39951;DHT22;25629;51.444;-2.606;2022-09-13T05:55:58;16.40;99.90
39951;DHT22;25629;51.444;-2.606;2022-09-13T05:58:23;16.30;99.90
39951;DHT22;25629;51.444;-2.606;2022-09-13T06:00:53;16.30;99.90
39951;DHT22;25629;51.444;-2.606;2022-09-13T06:03:19;16.40;99.90
39951;DHT22;25629;51.444;-2.606;2022-09-13T06:05:45;16.40;99.90
39951;DHT22;25629;51.444;-2.606;2022-09-13T06:08:10;16.50;99.90
39951;DHT22;25629;51.444;-2.606;2022-09-13T06:10:36;16.50;99.90
39951;DHT22;25629;51.444;-2.606;2022-09-13T06:13:01;16.50;99.90
39951;DHT22;25629;51.444;-2.606;2022-09-13T06:15:27;16.50;99.90
39951;DHT22;25629;51.444;-2.606;2022-09-13T06:17:53;16.50;99.90
39951;DHT22;25629;51.444;-2.606;2022-09-13T06:20:19;16.50;99.90
39951;DHT22;25629;51.444;-2.606;2022-09-13T06:22:47;16.50;99.90
39951;DHT22;25629;51.444;-2.606;2022-09-13T06:25:12;16.60;99.90
39951;DHT22;25629;51.444;-2.606;2022-09-13T06:27:38;16.60;99.90
39951;DHT22;25629;51.444;-2.606;2022-09-13T06:30:04;16.60;99.90
39951;DHT22;25629;51.444;-2.606;2022-09-13T06:32:31;16.50;99.90
39951;DHT22;25629;51.444;-2.606;2022-09-13T06:34:57;16.40;99.90
39951;DHT22;25629;51.444;-2.606;2022-09-13T06:37:22;16.40;99.90
39951;DHT22;25629;51.444;-2.606;2022-09-13T06:39:48;16.50;99.90
39951;DHT22;25629;51.444;-2.606;2022-09-13T06:42:14;16.50;99.90
39951;DHT22;25629;51.444;-2.606;2022-09-13T06:44:39;16.50;99.90
39951;DHT22;25629;51.444;-2.606;2022-09-13T06:47:05;16.50;99.90
39951;DHT22;25629;51.444;-2.606;2022-09-13T06:49:30;16.50;99.90
39951;DHT22;25629;51.444;-2.606;2022-09-13T06:51:56;16.60;99.90
39951;DHT22;25629;51.444;-2.606;2022-09-13T06:54:22;16.60;99.90
39951;DHT22;25629;51.444;-2.606;2022-09-13T06:56:47;16.70;99.90
39951;DHT22;25629;51.444;-2.606;2022-09-13T06:59:13;16.60;99.90
39951;DHT22;25629;51.444;-2.606;2022-09-13T07:01:41;16.60;99.90
39951;DHT22;25629;51.444;-2.606;2022-09-13T07:04:15;16.60;99.90
39951;DHT22;25629;51.444;-2.606;2022-09-13T07:06:44;16.60;99.90
39951;DHT22;25629;51.444;-2.606;2022-09-13T07:09:20;16.50;99.90
39951;DHT22;25629;51.444;-2.606;2022-09-13T07:11:47;16.50;99.90
39951;DHT22;25629;51.444;-2.606;2022-09-13T07:14:14;16.50;99.90
39951;DHT22;25629;51.444;-2.606;2022-09-13T07:16:40;16.50;99.90
39951;DHT22;25629;51.444;-2.606;2022-09-13T07:19:11;16.60;99.90
39951;DHT22;25629;51.444;-2.606;2022-09-13T07:21:37;16.60;99.90
39951;DHT22;25629;51.444;-2.606;2022-09-13T07:24:03;16.70;99.90
39951;DHT22;25629;51.444;-2.606;2022-09-13T07:26:29;16.70;99.90
39951;DHT22;25629;51.444;-2.606;2022-09-13T07:28:58;16.70;99.90
39951;DHT22;25629;51.444;-2.606;2022-09-13T07:31:29;16.70;99.90
39951;DHT22;25629;51.444;-2.606;2022-09-13T07:33:57;16.70;99.90
39951;DHT22;25629;51.444;-2.606;2022-09-13T07:36:24;16.60;99.90
39951;DHT22;25629;51.444;-2.606;2022-09-13T07:38:51;16.60;99.90
39951;DHT22;25629;51.444;-2.606;2022-09-13T07:41:17;16.60;99.90
39951;DHT22;25629;51.444;-2.606;2022-09-13T07:43:43;16.60;99.90
39951;DHT22;25629;51.444;-2.606;2022-09-13T07:46:12;16.60;99.90
39951;DHT22;25629;51.444;-2.606;2022-09-13T07:48:39;16.70;99.90
39951;DHT22;25629;51.444;-2.606;2022-09-13T07:51:16;16.80;99.90
39951;DHT22;25629;51.444;-2.606;2022-09-13T07:53:44;16.80;99.90
39951;DHT22;25629;51.444;-2.606;2022-09-13T07:56:15;16.90;99.90
39951;DHT22;25629;51.444;-2.606;2022-09-13T07:58:43;16.80;99.90
39951;DHT22;25629;51.444;-2.606;2022-09-13T08:01:24;16.90;99.90
39951;DHT22;25629;51.444;-2.606;2022-09-13T08:04:00;16.90;99.90
39951;DHT22;25629;51.444;-2.606;2022-09-13T08:06:28;16.90;99.90
39951;DHT22;25629;51.444;-2.606;2022-09-13T08:08:54;16.80;99.90
39951;DHT22;25629;51.444;-2.606;2022-09-13T08:11:23;16.70;99.90
39951;DHT22;25629;51.444;-2.606;2022-09-13T08:13:50;16.80;99.90
39951;DHT22;25629;51.444;-2.606;2022-09-13T08:16:18;16.70;99.90
39951;DHT22;25629;51.444;-2.606;2022-09-13T08:18:45;16.70;99.90
39951;DHT22;25629;51.444;-2.606;2022-09-13T08:21:11;16.80;99.90
39951;DHT22;25629;51.444;-2.606;2022-09-13T08:23:37;16.90;99.90
39951;DHT22;25629;51.444;-2.606;2022-09-13T08:26:03;17.00;99.90
39951;DHT22;25629;51.444;-2.606;2022-09-13T08:28:29;17.00;99.90
39951;DHT22;25629;51.444;-2.606;2022-09-13T08:31:01;17.00;99.90
39951;DHT22;25629;51.444;-2.606;2022-09-13T08:33:26;17.00;99.90
39951;DHT22;25629;51.444;-2.606;2022-09-13T08:35:52;17.10;99.90
39951;DHT22;25629;51.444;-2.606;2022-09-13T08:38:19;17.00;99.90
39951;DHT22;25629;51.444;-2.606;2022-09-13T08:41:00;17.00;99.90
39951;DHT22;25629;51.444;-2.606;2022-09-13T08:43:51;17.20;99.90
39951;DHT22;25629;51.444;-2.606;2022-09-13T08:46:45;17.30;99.90
39951;DHT22;25629;51.444;-2.606;2022-09-13T08:49:29;17.20;99.90
39951;DHT22;25629;51.444;-2.606;2022-09-13T08:52:00;17.20;99.90
39951;DHT22;25629;51.444;-2.606;2022-09-13T08:54:29;17.20;99.90
39951;DHT22;25629;51.444;-2.606;2022-09-13T08:57:21;17.30;99.90
39951;DHT22;25629;51.444;-2.606;2022-09-13T08:59:54;17.60;99.90
39951;DHT22;25629;51.444;-2.606;2022-09-13T09:02:59;17.70;99.90
39951;DHT22;25629;51.444;-2.606;2022-09-13T09:05:31;17.60;99.90
39951;DHT22;25629;51.444;-2.606;2022-09-13T09:08:05;17.70;99.90
39951;DHT22;25629;51.444;-2.606;2022-09-13T09:10:41;17.90;99.90
39951;DHT22;25629;51.444;-2.606;2022-09-13T09:18:50;17.90;99.90
39951;DHT22;25629;51.444;-2.606;2022-09-13T09:21:20;18.00;99.90
39951;DHT22;25629;51.444;-2.606;2022-09-13T09:23:53;18.00;99.90
39951;DHT22;25629;51.444;-2.606;2022-09-13T09:26:21;18.00;99.90
39951;DHT22;25629;51.444;-2.606;2022-09-13T09:39:42;18.40;99.90
39951;DHT22;25629;51.444;-2.606;2022-09-13T09:42:14;18.40;99.90
39951;DHT22;25629;51.444;-2.606;2022-09-13T09:44:44;18.30;99.90
39951;DHT22;25629;51.444;-2.606;2022-09-13T09:47:13;18.30;99.90
39951;DHT22;25629;51.444;-2.606;2022-09-13T09:49:50;18.50;99.90
39951;DHT22;25629;51.444;-2.606;2022-09-13T09:52:43;18.20;99.90
39951;DHT22;25629;51.444;-2.606;2022-09-13T09:55:24;18.30;99.90
39951;DHT22;25629;51.444;-2.606;2022-09-13T09:57:58;18.40;99.90
39951;DHT22;25629;51.444;-2.606;2022-09-13T10:00:28;18.50;99.90
39951;DHT22;25629;51.444;-2.606;2022-09-13T10:02:58;18.60;99.90
39951;DHT22;25629;51.444;-2.606;2022-09-13T10:05:26;18.50;99.90
39951;DHT22;25629;51.444;-2.606;2022-09-13T10:07:54;18.40;99.90
39951;DHT22;25629;51.444;-2.606;2022-09-13T10:12:58;18.20;99.90
39951;DHT22;25629;51.444;-2.606;2022-09-13T10:15:27;18.20;99.90
39951;DHT22;25629;51.444;-2.606;2022-09-13T10:18:14;18.30;99.90
39951;DHT22;25629;51.444;-2.606;2022-09-13T10:20:41;18.40;99.90
39951;DHT22;25629;51.444;-2.606;2022-09-13T10:25:42;18.30;99.90
39951;DHT22;25629;51.444;-2.606;2022-09-13T10:28:15;18.20;99.90
39951;DHT22;25629;51.444;-2.606;2022-09-13T10:35:52;18.30;99.90
39951;DHT22;25629;51.444;-2.606;2022-09-13T10:38:30;18.30;99.90
39951;DHT22;25629;51.444;-2.606;2022-09-13T10:40:57;18.30;99.90
39951;DHT22;25629;51.444;-2.606;2022-09-13T10:43:26;18.40;99.90
39951;DHT22;25629;51.444;-2.606;2022-09-13T10:45:53;18.30;99.90
39951;DHT22;25629;51.444;-2.606;2022-09-13T10:48:20;18.20;99.90
39951;DHT22;25629;51.444;-2.606;2022-09-13T10:51:07;18.30;99.90
39951;DHT22;25629;51.444;-2.606;2022-09-13T10:53:42;18.30;99.90
39951;DHT22;25629;51.444;-2.606;2022-09-13T10:56:18;18.30;99.90
39951;DHT22;25629;51.444;-2.606;2022-09-13T10:58:44;18.30;99.90
39951;DHT22;25629;51.444;-2.606;2022-09-13T11:07:01;18.30;99.90
39951;DHT22;25629;51.444;-2.606;2022-09-13T11:09:47;18.30;99.90
39951;DHT22;25629;51.444;-2.606;2022-09-13T11:12:32;18.20;99.90
39951;DHT22;25629;51.444;-2.606;2022-09-13T11:20:38;17.90;99.90
39951;DHT22;25629;51.444;-2.606;2022-09-13T11:36:22;17.70;99.90
39951;DHT22;25629;51.444;-2.606;2022-09-13T11:39:15;17.60;99.90
39951;DHT22;25629;51.444;-2.606;2022-09-13T11:47:57;18.00;99.90
39951;DHT22;25629;51.444;-2.606;2022-09-13T11:53:35;18.10;99.90
39951;DHT22;25629;51.444;-2.606;2022-09-13T11:56:07;18.20;99.90
39951;DHT22;25629;51.444;-2.606;2022-09-13T12:01:10;18.30;99.90
39951;DHT22;25629;51.444;-2.606;2022-09-13T12:03:45;18.20;99.90
39951;DHT22;25629;51.444;-2.606;2022-09-13T12:06:22;18.30;99.90
39951;DHT22;25629;51.444;-2.606;2022-09-13T12:08:54;18.20;99.90
39951;DHT22;25629;51.444;-2.606;2022-09-13T12:11:25;18.10;99.90
39951;DHT22;25629;51.444;-2.606;2022-09-13T12:14:14;18.10;99.90
39951;DHT22;25629;51.444;-2.606;2022-09-13T12:16:44;18.20;99.90
39951;DHT22;25629;51.444;-2.606;2022-09-13T12:19:30;18.20;99.90
39951;DHT22;25629;51.444;-2.606;2022-09-13T12:22:00;18.40;99.90
39951;DHT22;25629;51.444;-2.606;2022-09-13T12:24:46;18.30;99.90
39951;DHT22;25629;51.444;-2.606;2022-09-13T12:29:51;18.40;99.90
39951;DHT22;25629;51.444;-2.606;2022-09-13T12:32:19;18.50;99.90
39951;DHT22;25629;51.444;-2.606;2022-09-13T12:51:07;18.10;99.90
39951;DHT22;25629;51.444;-2.606;2022-09-13T12:57:02;17.90;99.90
39951;DHT22;25629;51.444;-2.606;2022-09-13T13:02:38;17.90;99.90
39951;DHT22;25629;51.444;-2.606;2022-09-13T13:07:55;18.10;99.90
39951;DHT22;25629;51.444;-2.606;2022-09-13T13:13:07;18.30;99.90
39951;DHT22;25629;51.444;-2.606;2022-09-13T13:18:23;18.40;99.90
39951;DHT22;25629;51.444;-2.606;2022-09-13T13:23:34;18.50;99.90
39951;DHT22;25629;51.444;-2.606;2022-09-13T13:26:43;18.50;99.90
39951;DHT22;25629;51.444;-2.606;2022-09-13T13:34:50;18.60;99.90
39951;DHT22;25629;51.444;-2.606;2022-09-13T13:39:48;18.40;99.90
39951;DHT22;25629;51.444;-2.606;2022-09-13T13:42:28;18.40;99.90
39951;DHT22;25629;51.444;-2.606;2022-09-13T13:52:52;18.10;99.90
39951;DHT22;25629;51.444;-2.606;2022-09-13T13:55:49;18.10;99.90
39951;DHT22;25629;51.444;-2.606;2022-09-13T13:58:43;18.00;99.90
39951;DHT22;25629;51.444;-2.606;2022-09-13T14:01:19;18.00;99.90
39951;DHT22;25629;51.444;-2.606;2022-09-13T14:07:03;18.00;99.90
39951;DHT22;25629;51.444;-2.606;2022-09-13T14:09:37;18.00;99.90
39951;DHT22;25629;51.444;-2.606;2022-09-13T14:17:56;18.00;99.90
39951;DHT22;25629;51.444;-2.606;2022-09-13T14:20:26;18.00;99.90
39951;DHT22;25629;51.444;-2.606;2022-09-13T14:23:09;18.10;99.90
39951;DHT22;25629;51.444;-2.606;2022-09-13T14:25:35;18.00;99.90
39951;DHT22;25629;51.444;-2.606;2022-09-13T14:28:01;18.00;99.90
39951;DHT22;25629;51.444;-2.606;2022-09-13T14:30:31;18.00;99.90
39951;DHT22;25629;51.444;-2.606;2022-09-13T14:33:00;17.90;99.90
39951;DHT22;25629;51.444;-2.606;2022-09-13T14:35:39;17.90;99.90
39951;DHT22;25629;51.444;-2.606;2022-09-13T14:38:24;17.90;99.90
39951;DHT22;25629;51.444;-2.606;2022-09-13T14:40:57;18.00;99.90
39951;DHT22;25629;51.444;-2.606;2022-09-13T14:43:26;17.90;99.90
39951;DHT22;25629;51.444;-2.606;2022-09-13T14:46:17;17.90;99.90
39951;DHT22;25629;51.444;-2.606;2022-09-13T14:48:50;17.90;99.90
39951;DHT22;25629;51.444;-2.606;2022-09-13T14:51:29;17.90;99.90
39951;DHT22;25629;51.444;-2.606;2022-09-13T14:54:02;17.90;99.90
39951;DHT22;25629;51.444;-2.606;2022-09-13T14:56:52;18.00;99.90
39951;DHT22;25629;51.444;-2.606;2022-09-13T14:59:46;18.00;99.90
39951;DHT22;25629;51.444;-2.606;2022-09-13T15:04:39;18.10;99.90
39951;DHT22;25629;51.444;-2.606;2022-09-13T15:07:17;18.20;99.90
39951;DHT22;25629;51.444;-2.606;2022-09-13T15:09:44;18.30;99.90
39951;DHT22;25629;51.444;-2.606;2022-09-13T15:12:25;18.30;99.90
39951;DHT22;25629;51.444;-2.606;2022-09-13T15:21:05;18.50;99.90
39951;DHT22;25629;51.444;-2.606;2022-09-13T15:23:40;18.80;99.90
39951;DHT22;25629;51.444;-2.606;2022-09-13T15:26:22;18.80;99.90
39951;DHT22;25629;51.444;-2.606;2022-09-13T15:31:22;19.00;99.90
39951;DHT22;25629;51.444;-2.606;2022-09-13T15:34:12;18.90;99.90
39951;DHT22;25629;51.444;-2.606;2022-09-13T15:39:27;18.80;99.90
39951;DHT22;25629;51.444;-2.606;2022-09-13T15:41:57;18.70;99.90
39951;DHT22;25629;51.444;-2.606;2022-09-13T15:44:27;18.60;99.90
39951;DHT22;25629;51.444;-2.606;2022-09-13T15:46:58;18.60;99.90
39951;DHT22;25629;51.444;-2.606;2022-09-13T15:49:26;18.50;99.90
39951;DHT22;25629;51.444;-2.606;2022-09-13T15:51:55;18.50;99.90
39951;DHT22;25629;51.444;-2.606;2022-09-13T15:54:22;18.60;99.90
39951;DHT22;25629;51.444;-2.606;2022-09-13T15:56:48;18.50;99.90
39951;DHT22;25629;51.444;-2.606;2022-09-13T15:59:19;18.50;99.90
39951;DHT22;25629;51.444;-2.606;2022-09-13T16:01:47;18.50;99.90
39951;DHT22;25629;51.444;-2.606;2022-09-13T16:04:14;18.60;99.90
39951;DHT22;25629;51.444;-2.606;2022-09-13T16:06:40;18.60;99.90
39951;DHT22;25629;51.444;-2.606;2022-09-13T16:09:24;18.60;99.90
39951;DHT22;25629;51.444;-2.606;2022-09-13T16:11:51;18.60;99.90
39951;DHT22;25629;51.444;-2.606;2022-09-13T16:14:17;18.70;99.90
39951;DHT22;25629;51.444;-2.606;2022-09-13T16:16:44;18.60;99.90
39951;DHT22;25629;51.444;-2.606;2022-09-13T16:19:21;18.50;99.90
39951;DHT22;25629;51.444;-2.606;2022-09-13T16:21:48;18.50;99.90
39951;DHT22;25629;51.444;-2.606;2022-09-13T16:24:14;18.40;99.90
39951;DHT22;25629;51.444;-2.606;2022-09-13T16:26:41;18.40;99.90
39951;DHT22;25629;51.444;-2.606;2022-09-13T16:29:07;18.50;99.90
39951;DHT22;25629;51.444;-2.606;2022-09-13T16:31:34;18.30;99.90
39951;DHT22;25629;51.444;-2.606;2022-09-13T16:33:59;18.20;99.90
39951;DHT22;25629;51.444;-2.606;2022-09-13T16:36:25;18.20;99.90
39951;DHT22;25629;51.444;-2.606;2022-09-13T16:38:54;18.20;99.90
39951;DHT22;25629;51.444;-2.606;2022-09-13T16:41:19;18.10;99.90
39951;DHT22;25629;51.444;-2.606;2022-09-13T16:43:45;18.10;99.90
39951;DHT22;25629;51.444;-2.606;2022-09-13T16:46:11;18.10;99.90
39951;DHT22;25629;51.444;-2.606;2022-09-13T16:48:38;18.10;99.90
39951;DHT22;25629;51.444;-2.606;2022-09-13T16:51:08;18.00;99.90
39951;DHT22;25629;51.444;-2.606;2022-09-13T16:53:36;18.00;99.90
39951;DHT22;25629;51.444;-2.606;2022-09-13T16:56:06;18.00;99.90
39951;DHT22;25629;51.444;-2.606;2022-09-13T16:58:35;18.00;99.90
39951;DHT22;25629;51.444;-2.606;2022-09-13T17:01:06;18.00;99.90
39951;DHT22;25629;51.444;-2.606;2022-09-13T17:03:32;18.00;99.90
39951;DHT22;25629;51.444;-2.606;2022-09-13T17:06:05;18.00;99.90
39951;DHT22;25629;51.444;-2.606;2022-09-13T17:08:32;17.90;99.90
39951;DHT22;25629;51.444;-2.606;2022-09-13T17:10:58;17.90;99.90
39951;DHT22;25629;51.444;-2.606;2022-09-13T17:13:24;17.80;99.90
39951;DHT22;25629;51.444;-2.606;2022-09-13T17:15:50;17.70;99.90
39951;DHT22;25629;51.444;-2.606;2022-09-13T17:18:16;17.60;99.90
39951;DHT22;25629;51.444;-2.606;2022-09-13T17:20:47;17.70;99.90
39951;DHT22;25629;51.444;-2.606;2022-09-13T17:23:13;17.60;99.90
39951;DHT22;25629;51.444;-2.606;2022-09-13T17:25:41;17.60;99.90
39951;DHT22;25629;51.444;-2.606;2022-09-13T17:28:14;17.60;99.90
39951;DHT22;25629;51.444;-2.606;2022-09-13T17:30:41;17.70;99.90
39951;DHT22;25629;51.444;-2.606;2022-09-13T17:33:08;17.60;99.90
39951;DHT22;25629;51.444;-2.606;2022-09-13T17:35:34;17.60;99.90
39951;DHT22;25629;51.444;-2.606;2022-09-13T17:38:01;17.60;99.90
39951;DHT22;25629;51.444;-2.606;2022-09-13T17:40:28;17.60;99.90
39951;DHT22;25629;51.444;-2.606;2022-09-13T17:42:54;17.70;99.90
39951;DHT22;25629;51.444;-2.606;2022-09-13T17:45:20;17.50;99.90
39951;DHT22;25629;51.444;-2.606;2022-09-13T17:47:46;17.60;99.90
39951;DHT22;25629;51.444;-2.606;2022-09-13T17:50:13;17.60;99.90
39951;DHT22;25629;51.444;-2.606;2022-09-13T17:52:39;17.50;99.90
39951;DHT22;25629;51.444;-2.606;2022-09-13T17:55:04;17.40;99.90
39951;DHT22;25629;51.444;-2.606;2022-09-13T17:57:31;17.40;99.90
39951;DHT22;25629;51.444;-2.606;2022-09-13T17:59:57;17.30;99.90
39951;DHT22;25629;51.444;-2.606;2022-09-13T18:02:23;17.30;99.90
39951;DHT22;25629;51.444;-2.606;2022-09-13T18:04:50;17.40;99.90
39951;DHT22;25629;51.444;-2.606;2022-09-13T18:07:16;17.30;99.90
39951;DHT22;25629;51.444;-2.606;2022-09-13T18:09:41;17.40;99.90
39951;DHT22;25629;51.444;-2.606;2022-09-13T18:12:08;17.30;99.90
39951;DHT22;25629;51.444;-2.606;2022-09-13T18:14:33;17.30;99.90
39951;DHT22;25629;51.444;-2.606;2022-09-13T18:16:59;17.30;99.90
39951;DHT22;25629;51.444;-2.606;2022-09-13T18:19:25;17.30;99.90
39951;DHT22;25629;51.444;-2.606;2022-09-13T18:21:52;17.30;99.90
39951;DHT22;25629;51.444;-2.606;2022-09-13T18:24:18;17.30;99.90
39951;DHT22;25629;51.444;-2.606;2022-09-13T18:26:43;17.20;99.90
39951;DHT22;25629;51.444;-2.606;2022-09-13T18:29:09;17.30;99.90
39951;DHT22;25629;51.444;-2.606;2022-09-13T18:31:36;17.20;99.90
39951;DHT22;25629;51.444;-2.606;2022-09-13T18:34:20;17.20;99.90
39951;DHT22;25629;51.444;-2.606;2022-09-13T18:36:46;17.20;99.90
39951;DHT22;25629;51.444;-2.606;2022-09-13T18:39:18;17.20;99.90
39951;DHT22;25629;51.444;-2.606;2022-09-13T18:41:44;17.10;99.90
39951;DHT22;25629;51.444;-2.606;2022-09-13T18:44:12;17.10;99.90
39951;DHT22;25629;51.444;-2.606;2022-09-13T18:46:38;17.10;99.90
39951;DHT22;25629;51.444;-2.606;2022-09-13T18:49:05;17.10;99.90
39951;DHT22;25629;51.444;-2.606;2022-09-13T18:51:33;17.00;99.90
39951;DHT22;25629;51.444;-2.606;2022-09-13T18:53:59;17.00;99.90
39951;DHT22;25629;51.444;-2.606;2022-09-13T18:56:26;17.00;99.90